Time;durP1;ratioP1;P1;durP2;ratioP2;P2;SDS_P1;SDS_P2;PMS_P1;PMS_P2;Temp;Humidity;BMP_temperature;BMP_pressure;BME280_temperature;BME280_humidity;BME280_pressure;Samples;Min_cycle;Max_cycle;Signal;HPM_P1;HPM_P2
2021/06/21 00:00:58;;;;;;;8.68;7.22;;;28.40;56.80;;;;;;4995961;28;20034;-49
2021/06/21 00:03:24;;;;;;;13.05;6.88;;;28.30;56.90;;;;;;5014614;28;20572;-47
2021/06/21 00:05:50;;;;;;;10.27;6.47;;;28.30;57.10;;;;;;5013555;28;20041;-46
2021/06/21 00:08:16;;;;;;;8.05;7.07;;;28.30;57.00;;;;;;4996647;28;20389;-44
2021/06/21 00:10:42;;;;;;;9.68;6.80;;;28.30;57.10;;;;;;5014100;28;20026;-43
2021/06/21 00:13:08;;;;;;;12.68;7.43;;;28.20;57.30;;;;;;4996522;28;20156;-48
2021/06/21 00:15:34;;;;;;;8.98;6.95;;;28.20;57.30;;;;;;5014707;28;20128;-46
2021/06/21 00:18:00;;;;;;;10.85;8.43;;;28.20;57.20;;;;;;5013615;28;20026;-44
2021/06/21 00:20:27;;;;;;;8.30;7.50;;;28.20;57.20;;;;;;5014029;28;20456;-46
2021/06/21 00:22:54;;;;;;;10.95;7.13;;;28.20;57.20;;;;;;4996279;28;20112;-47
2021/06/21 00:25:21;;;;;;;9.57;7.13;;;28.10;57.20;;;;;;5005445;28;20473;-43
2021/06/21 00:27:48;;;;;;;9.95;7.32;;;28.10;57.50;;;;;;4995085;28;20109;-46
2021/06/21 00:30:17;;;;;;;14.55;7.50;;;28.00;57.80;;;;;;5011460;28;20030;-48
2021/06/21 00:32:44;;;;;;;12.85;7.90;;;27.90;58.00;;;;;;5013595;28;20026;-44
2021/06/21 00:35:11;;;;;;;10.75;7.53;;;27.80;58.40;;;;;;5011528;28;20121;-46
2021/06/21 00:37:38;;;;;;;9.05;7.63;;;27.80;58.60;;;;;;5011548;28;20085;-49
2021/06/21 00:40:06;;;;;;;8.27;7.43;;;27.80;58.50;;;;;;5011366;28;20030;-50
2021/06/21 00:42:34;;;;;;;13.48;7.75;;;27.80;58.60;;;;;;5013482;28;20022;-45
2021/06/21 00:44:59;;;;;;;12.20;7.47;;;27.80;58.60;;;;;;4993409;28;20030;-48
2021/06/21 00:47:25;;;;;;;9.43;7.13;;;27.80;58.60;;;;;;5011827;28;20172;-45
2021/06/21 00:49:51;;;;;;;13.57;6.57;;;27.70;58.40;;;;;;5011653;28;20030;-51
2021/06/21 00:52:21;;;;;;;14.82;7.60;;;27.70;58.50;;;;;;4994840;28;20070;-53
2021/06/21 00:54:47;;;;;;;10.70;6.95;;;27.80;58.60;;;;;;5013632;28;20092;-49
2021/06/21 00:57:14;;;;;;;11.90;7.00;;;27.70;58.40;;;;;;5008619;28;20025;-46
2021/06/21 00:59:40;;;;;;;9.05;7.50;;;27.80;58.80;;;;;;5011621;28;20457;-49
2021/06/21 01:02:06;;;;;;;7.72;6.78;;;27.70;58.90;;;;;;5010868;28;20037;-47
2021/06/21 01:04:32;;;;;;;7.97;7.18;;;27.70;58.70;;;;;;5012894;28;20457;-47
2021/06/21 01:06:58;;;;;;;8.10;7.20;;;27.70;58.90;;;;;;5010613;28;20113;-48
2021/06/21 01:09:24;;;;;;;14.60;7.47;;;27.80;59.00;;;;;;5011123;28;20484;-47
2021/06/21 01:11:58;;;;;;;7.93;7.13;;;27.80;59.10;;;;;;5010947;28;20065;-50
2021/06/21 01:14:33;;;;;;;8.32;7.47;;;27.70;59.10;;;;;;5011532;28;20038;-53
2021/06/21 01:17:23;;;;;;;11.65;7.05;;;27.70;59.30;;;;;;5012822;28;20236;-47
2021/06/21 01:19:54;;;;;;;12.45;7.68;;;27.70;59.90;;;;;;5010858;28;20026;-49
2021/06/21 01:22:50;;;;;;;11.32;6.75;;;27.60;59.80;;;;;;5010910;28;20049;-48
2021/06/21 01:25:42;;;;;;;12.23;7.30;;;27.60;60.90;;;;;;4992993;28;20156;-50
2021/06/21 01:28:57;;;;;;;11.18;7.63;;;27.40;61.30;;;;;;5005480;28;20034;-49
2021/06/21 01:31:28;;;;;;;11.20;7.75;;;27.40;61.60;;;;;;4988603;28;20120;-48
2021/06/21 01:33:55;;;;;;;9.98;7.38;;;27.40;61.40;;;;;;5010684;28;20034;-48
2021/06/21 01:36:24;;;;;;;9.38;7.43;;;27.30;61.50;;;;;;5011574;28;20037;-47
2021/06/21 01:38:52;;;;;;;8.00;7.20;;;27.30;61.60;;;;;;4984329;28;20060;-45
2021/06/21 01:41:38;;;;;;;9.23;7.25;;;27.30;61.30;;;;;;5011839;28;20025;-47
2021/06/21 01:44:06;;;;;;;11.35;7.63;;;27.30;61.70;;;;;;5011781;28;20034;-45
2021/06/21 01:46:35;;;;;;;8.57;6.60;;;27.40;61.30;;;;;;5012847;28;20045;-45
2021/06/21 01:49:05;;;;;;;10.10;7.15;;;27.40;61.20;;;;;;5012198;28;20542;-44
2021/06/21 01:51:34;;;;;;;7.88;6.72;;;27.30;61.20;;;;;;5012716;28;20371;-49
2021/06/21 01:54:01;;;;;;;8.25;7.45;;;27.30;61.20;;;;;;5011970;28;20022;-45
2021/06/21 01:56:31;;;;;;;7.32;6.40;;;27.30;60.90;;;;;;5012361;28;20156;-51
2021/06/21 01:59:00;;;;;;;11.05;7.32;;;27.40;60.70;;;;;;5012525;28;20544;-51
2021/06/21 02:01:27;;;;;;;9.27;6.80;;;27.40;60.50;;;;;;4994904;28;20108;-50
2021/06/21 02:03:55;;;;;;;11.90;6.85;;;27.40;60.30;;;;;;5011712;28;20108;-46
2021/06/21 02:06:25;;;;;;;7.88;7.07;;;27.40;60.20;;;;;;4994653;28;20038;-48
2021/06/21 02:08:53;;;;;;;9.85;7.22;;;27.40;59.90;;;;;;5012368;28;20026;-45
2021/06/21 02:11:20;;;;;;;9.55;6.93;;;27.40;59.60;;;;;;4994721;28;20026;-47
2021/06/21 02:13:49;;;;;;;9.18;7.05;;;27.50;59.50;;;;;;4994675;28;20026;-46
2021/06/21 02:16:16;;;;;;;11.75;6.85;;;27.50;59.30;;;;;;4994122;28;20477;-45
2021/06/21 02:18:43;;;;;;;8.35;6.90;;;27.50;59.40;;;;;;5012246;28;20040;-47
2021/06/21 02:21:11;;;;;;;7.85;6.68;;;27.40;59.30;;;;;;4994120;28;20029;-50
2021/06/21 02:23:38;;;;;;;9.23;6.80;;;27.40;59.40;;;;;;5011885;28;20429;-50
2021/06/21 02:26:04;;;;;;;10.77;7.20;;;27.40;59.40;;;;;;4994068;28;20088;-46
2021/06/21 02:28:32;;;;;;;11.13;7.22;;;27.40;59.50;;;;;;5012087;28;20331;-50
2021/06/21 02:30:59;;;;;;;9.55;6.50;;;27.40;59.60;;;;;;5011926;28;20025;-45
2021/06/21 02:33:26;;;;;;;9.07;7.15;;;27.40;59.50;;;;;;5012193;28;20163;-43
2021/06/21 02:35:52;;;;;;;10.00;6.78;;;27.40;59.50;;;;;;5012115;28;20030;-47
2021/06/21 02:38:19;;;;;;;11.20;6.45;;;27.30;59.50;;;;;;4993951;28;20030;-48
2021/06/21 02:40:45;;;;;;;9.95;6.13;;;27.30;59.70;;;;;;5012056;28;20025;-46
2021/06/21 02:43:12;;;;;;;8.32;6.70;;;27.20;59.70;;;;;;4993962;28;20025;-46
2021/06/21 02:45:37;;;;;;;7.93;6.68;;;27.20;59.90;;;;;;5011452;28;20034;-43
2021/06/21 02:48:05;;;;;;;8.15;6.38;;;27.10;60.30;;;;;;5011190;28;20081;-47
2021/06/21 02:50:31;;;;;;;7.47;6.72;;;27.00;60.40;;;;;;4994403;28;20133;-46
2021/06/21 02:53:19;;;;;;;9.25;6.40;;;27.10;60.30;;;;;;5011132;28;20026;-47
2021/06/21 02:55:49;;;;;;;9.55;6.65;;;27.10;60.40;;;;;;5011853;28;20040;-49
2021/06/21 02:58:31;;;;;;;8.45;6.15;;;27.00;60.40;;;;;;5011182;28;20034;-48
2021/06/21 03:01:04;;;;;;;12.70;7.57;;;27.10;60.50;;;;;;4993797;28;20034;-44
2021/06/21 03:03:33;;;;;;;8.23;6.47;;;27.10;60.50;;;;;;4994058;28;20504;-51
2021/06/21 03:06:01;;;;;;;14.43;6.93;;;27.10;60.30;;;;;;5011247;28;20081;-47
2021/06/21 03:08:29;;;;;;;9.13;6.13;;;27.10;60.20;;;;;;5011690;28;20053;-48
2021/06/21 03:10:56;;;;;;;8.88;6.35;;;27.20;60.10;;;;;;5011907;28;20077;-45
2021/06/21 03:13:22;;;;;;;9.68;7.28;;;27.20;60.00;;;;;;5011837;28;20040;-53
2021/06/21 03:15:53;;;;;;;9.43;6.63;;;27.20;60.10;;;;;;4994225;28;20088;-50
2021/06/21 03:18:23;;;;;;;9.00;6.63;;;27.20;60.10;;;;;;5011064;28;20026;-52
2021/06/21 03:20:57;;;;;;;10.00;7.03;;;27.20;60.20;;;;;;5013222;28;20080;-49
2021/06/21 03:23:23;;;;;;;;;;;27.30;60.10;;;;;;5015935;28;20033;-48
2021/06/21 03:25:54;;;;;;;11.05;6.88;;;27.30;60.00;;;;;;5015255;28;19909;-47
2021/06/21 03:28:20;;;;;;;10.20;6.90;;;27.30;59.80;;;;;;4997195;28;20545;-47
2021/06/21 03:30:57;;;;;;;10.63;6.93;;;27.40;59.80;;;;;;5014893;28;20029;-46
2021/06/21 03:33:23;;;;;;;10.95;6.70;;;27.30;59.80;;;;;;5015144;28;20033;-46
2021/06/21 03:35:49;;;;;;;8.63;6.35;;;27.40;59.50;;;;;;4997573;28;20058;-45
2021/06/21 03:38:21;;;;;;;8.45;7.15;;;27.40;59.40;;;;;;4996600;28;20030;-52
2021/06/21 03:40:48;;;;;;;10.25;6.63;;;27.40;59.40;;;;;;5008512;28;20076;-51
2021/06/21 03:43:19;;;;;;;8.02;6.78;;;27.40;59.50;;;;;;5014290;28;20358;-50
2021/06/21 03:45:49;;;;;;;10.05;6.80;;;27.40;59.50;;;;;;5014710;28;20508;-44
2021/06/21 03:48:16;;;;;;;13.57;7.22;;;27.40;59.50;;;;;;5014294;28;20022;-47
2021/06/21 03:50:42;;;;;;;7.53;6.68;;;27.30;60.10;;;;;;5014625;28;20022;-45
2021/06/21 03:53:08;;;;;;;10.48;6.90;;;27.30;59.50;;;;;;4997008;28;20129;-46
2021/06/21 03:55:34;;;;;;;8.10;6.60;;;27.40;59.40;;;;;;5012876;28;20077;-50
2021/06/21 03:58:00;;;;;;;11.98;6.40;;;27.40;59.20;;;;;;5014058;28;20551;-47
2021/06/21 04:00:28;;;;;;;11.48;6.68;;;27.40;59.10;;;;;;4997301;28;20057;-44
2021/06/21 04:02:56;;;;;;;7.07;6.15;;;27.60;58.90;;;;;;5014653;28;20420;-50
2021/06/21 04:05:24;;;;;;;8.02;6.68;;;27.70;58.70;;;;;;5013718;28;20394;-48
2021/06/21 04:07:50;;;;;;;8.98;6.55;;;27.70;58.40;;;;;;4997207;28;20075;-46
2021/06/21 04:10:19;;;;;;;11.77;6.80;;;27.80;58.20;;;;;;5013945;28;20034;-49
2021/06/21 04:12:46;;;;;;;10.70;7.00;;;27.80;58.10;;;;;;5014412;28;20030;-51
2021/06/21 04:15:14;;;;;;;12.63;6.78;;;27.90;58.10;;;;;;5013957;28;20056;-48
2021/06/21 04:17:41;;;;;;;7.38;6.40;;;27.90;58.00;;;;;;4997058;28;20488;-46
2021/06/21 04:20:12;;;;;;;12.55;7.13;;;28.00;57.80;;;;;;5014381;28;20456;-46
2021/06/21 04:22:38;;;;;;;13.50;7.05;;;28.10;57.70;;;;;;4997011;28;20034;-46
2021/06/21 04:25:07;;;;;;;10.05;7.10;;;28.10;57.40;;;;;;5013881;28;20103;-48
2021/06/21 04:27:33;;;;;;;10.90;6.75;;;28.20;57.20;;;;;;4996843;28;20058;-46
2021/06/21 04:29:59;;;;;;;10.48;6.63;;;28.30;57.20;;;;;;4996243;28;20081;-50
2021/06/21 04:32:25;;;;;;;12.32;7.40;;;28.30;57.00;;;;;;5013728;28;20036;-49
2021/06/21 04:34:51;;;;;;;9.75;6.93;;;28.30;56.90;;;;;;5014247;28;20480;-44
2021/06/21 04:37:17;;;;;;;10.65;6.97;;;28.30;56.80;;;;;;5013591;28;20033;-48
2021/06/21 04:39:43;;;;;;;10.32;7.38;;;28.30;56.90;;;;;;5014089;28;20026;-45
2021/06/21 04:42:09;;;;;;;10.02;6.95;;;28.40;56.70;;;;;;4995955;28;20033;-49
2021/06/21 04:44:34;;;;;;;9.00;7.10;;;28.40;56.70;;;;;;5014044;28;20113;-45
2021/06/21 04:47:00;;;;;;;16.73;7.32;;;28.40;56.70;;;;;;5014090;28;20125;-48
2021/06/21 04:49:26;;;;;;;13.90;7.43;;;28.50;56.70;;;;;;4995700;28;20030;-47
2021/06/21 04:51:52;;;;;;;12.55;7.35;;;28.60;56.40;;;;;;5013852;28;20033;-45
2021/06/21 04:54:19;;;;;;;13.75;7.57;;;28.50;56.40;;;;;;5013314;28;20053;-48
2021/06/21 04:56:44;;;;;;;12.25;6.72;;;28.60;56.30;;;;;;5013331;28;20038;-50
2021/06/21 04:59:10;;;;;;;11.88;6.60;;;28.60;56.10;;;;;;5013290;28;20029;-47
2021/06/21 05:01:36;;;;;;;8.98;7.03;;;28.80;55.80;;;;;;4995735;28;20057;-49
2021/06/21 05:04:05;;;;;;;17.85;7.40;;;28.90;55.80;;;;;;4995963;28;20026;-51
2021/06/21 05:06:39;;;;;;;9.82;6.97;;;29.00;55.50;;;;;;4996110;28;20060;-47
2021/06/21 05:09:07;;;;;;;10.85;7.28;;;29.10;55.20;;;;;;5013111;28;20076;-48
2021/06/21 05:11:33;;;;;;;15.05;6.88;;;29.20;55.00;;;;;;4996100;28;20115;-46
2021/06/21 05:14:00;;;;;;;11.32;6.20;;;29.30;54.90;;;;;;5011411;28;20026;-49
2021/06/21 05:16:26;;;;;;;13.18;6.60;;;29.40;54.50;;;;;;5012510;28;20069;-46
2021/06/21 05:18:52;;;;;;;9.57;7.00;;;29.50;54.10;;;;;;5012990;28;20026;-52
2021/06/21 05:21:18;;;;;;;10.13;6.47;;;29.50;54.10;;;;;;4994063;28;20033;-52
2021/06/21 05:23:44;;;;;;;13.70;6.80;;;29.50;53.80;;;;;;4994922;28;20026;-47
2021/06/21 05:26:10;;;;;;;12.88;7.43;;;29.50;54.00;;;;;;5011368;28;20074;-50
2021/06/21 05:28:36;;;;;;;14.35;8.02;;;29.50;53.90;;;;;;4995014;28;20053;-51
2021/06/21 05:31:02;;;;;;;12.73;7.50;;;29.60;53.80;;;;;;5012390;28;20548;-44
2021/06/21 05:33:28;;;;;;;10.02;7.10;;;29.70;53.80;;;;;;5009119;28;20018;-45
2021/06/21 05:35:53;;;;;;;10.40;6.45;;;29.70;53.80;;;;;;5009279;28;20026;-49
2021/06/21 05:38:20;;;;;;;8.57;6.35;;;29.80;53.40;;;;;;5004543;28;20025;-50
2021/06/21 05:40:46;;;;;;;12.00;6.55;;;30.00;53.00;;;;;;5006776;28;20034;-53
2021/06/21 05:43:11;;;;;;;11.82;6.55;;;30.20;52.70;;;;;;5008645;28;20030;-57
2021/06/21 05:45:37;;;;;;;12.20;7.05;;;30.40;52.20;;;;;;5011609;28;20033;-52
2021/06/21 05:48:05;;;;;;;15.65;7.30;;;30.40;52.10;;;;;;4994484;28;20044;-51
2021/06/21 05:50:31;;;;;;;11.82;7.05;;;30.30;52.20;;;;;;4994145;28;20117;-48
2021/06/21 05:52:57;;;;;;;15.60;7.63;;;30.20;52.30;;;;;;5012135;28;20026;-41
2021/06/21 05:55:23;;;;;;;13.73;7.38;;;30.10;52.60;;;;;;4977697;28;20388;-43
2021/06/21 05:57:54;;;;;;;15.20;7.55;;;30.20;52.30;;;;;;5012192;28;20033;-41
2021/06/21 06:00:21;;;;;;;13.15;7.28;;;30.20;52.30;;;;;;4978209;28;20535;-42
2021/06/21 06:02:48;;;;;;;15.65;8.13;;;30.10;52.50;;;;;;5012518;28;20021;-41
2021/06/21 06:05:15;;;;;;;9.40;6.55;;;30.10;52.70;;;;;;5011743;28;20540;-42
2021/06/21 06:07:41;;;;;;;12.80;7.15;;;30.00;52.90;;;;;;5012172;28;20041;-43
2021/06/21 06:10:08;;;;;;;13.70;7.45;;;29.90;53.10;;;;;;5012561;28;20025;-41
2021/06/21 06:12:34;;;;;;;13.52;7.78;;;29.90;53.00;;;;;;4978538;28;20366;-47
2021/06/21 06:15:01;;;;;;;14.90;8.38;;;29.90;53.30;;;;;;4994283;28;20172;-41
2021/06/21 06:17:27;;;;;;;13.00;8.13;;;29.80;53.60;;;;;;5011560;28;20060;-40
2021/06/21 06:19:53;;;;;;;13.10;8.25;;;29.80;53.60;;;;;;5012344;28;20022;-40
2021/06/21 06:22:19;;;;;;;18.05;7.93;;;29.80;53.50;;;;;;5011662;28;20464;-44
2021/06/21 06:24:45;;;;;;;18.10;8.13;;;30.00;53.40;;;;;;5011989;28;20456;-43
2021/06/21 06:27:11;;;;;;;14.65;7.68;;;30.00;53.20;;;;;;5012292;28;20109;-46
2021/06/21 06:29:37;;;;;;;17.00;7.78;;;30.10;53.10;;;;;;4993967;28;20056;-46
2021/06/21 06:32:04;;;;;;;16.90;8.35;;;30.20;52.80;;;;;;5012119;28;20065;-41
2021/06/21 06:34:30;;;;;;;15.40;8.23;;;30.40;52.40;;;;;;4994018;28;20349;-41
2021/06/21 06:36:56;;;;;;;16.63;8.57;;;30.60;51.80;;;;;;4993752;28;20022;-44
2021/06/21 06:39:22;;;;;;;12.45;8.13;;;30.80;51.60;;;;;;5010928;28;20041;-45
2021/06/21 06:41:48;;;;;;;13.70;7.43;;;30.80;51.60;;;;;;5011943;28;20036;-43
2021/06/21 06:44:14;;;;;;;12.77;7.70;;;31.00;51.20;;;;;;4994116;28;20030;-42
2021/06/21 06:46:40;;;;;;;11.77;8.18;;;31.20;50.80;;;;;;4994123;28;20085;-43
2021/06/21 06:49:07;;;;;;;12.13;7.75;;;31.50;50.50;;;;;;5011708;28;20030;-45
2021/06/21 06:51:42;;;;;;;13.05;8.52;;;31.50;50.30;;;;;;5011689;28;20350;-46
2021/06/21 06:54:22;;;;;;;9.55;7.60;;;32.60;49.00;;;;;;4994741;28;20030;-44
2021/06/21 06:57:01;;;;;;;10.52;7.15;;;34.90;46.30;;;;;;5016111;28;20026;-41
2021/06/21 06:59:35;;;;;;;15.32;7.32;;;37.00;42.20;;;;;;4997746;28;20461;-43
2021/06/21 07:02:05;;;;;;;14.93;7.20;;;38.80;39.00;;;;;;5016317;28;20054;-41
2021/06/21 07:04:31;;;;;;;16.58;7.88;;;40.00;36.80;;;;;;5015282;28;20026;-47
2021/06/21 07:07:00;;;;;;;9.13;6.75;;;41.00;35.40;;;;;;5015763;28;20041;-42
2021/06/21 07:09:28;;;;;;;17.00;7.57;;;41.80;33.30;;;;;;5015550;28;20084;-40
2021/06/21 07:11:54;;;;;;;17.65;8.57;;;42.10;33.40;;;;;;4997756;28;20037;-44
2021/06/21 07:14:20;;;;;;;15.10;8.93;;;42.60;32.50;;;;;;5014852;28;20026;-41
2021/06/21 07:16:47;;;;;;;12.23;8.80;;;43.20;32.00;;;;;;5015259;28;20087;-52
2021/06/21 07:19:14;;;;;;;20.88;9.48;;;43.80;31.50;;;;;;5015737;28;20034;-53
2021/06/21 07:21:40;;;;;;;14.27;9.10;;;44.70;30.40;;;;;;4997631;28;20461;-55
2021/06/21 07:24:08;;;;;;;16.05;9.07;;;45.60;29.60;;;;;;5015171;28;20599;-56
2021/06/21 07:26:34;;;;;;;14.93;8.95;;;46.50;29.20;;;;;;4994281;28;20065;-54
2021/06/21 07:28:59;;;;;;;16.15;8.60;;;47.20;28.40;;;;;;5015384;28;20026;-55
2021/06/21 07:31:25;;;;;;;15.45;8.73;;;47.70;28.10;;;;;;5014510;28;20041;-58
2021/06/21 07:33:51;;;;;;;16.35;10.00;;;48.00;27.60;;;;;;4996983;28;20416;-57
2021/06/21 07:36:17;;;;;;;16.23;9.52;;;48.70;27.20;;;;;;4997153;28;20109;-57
2021/06/21 07:38:43;;;;;;;10.27;8.70;;;49.50;27.00;;;;;;5014926;28;20029;-57
2021/06/21 07:41:09;;;;;;;11.50;9.25;;;50.20;26.30;;;;;;5014915;28;20041;-54
2021/06/21 07:43:35;;;;;;;14.20;9.27;;;50.60;26.00;;;;;;5014244;28;20033;-55
2021/06/21 07:46:03;;;;;;;35.63;11.35;;;50.80;25.90;;;;;;5012355;28;20108;-56
2021/06/21 07:48:29;;;;;;;16.70;9.40;;;51.00;25.90;;;;;;4981193;28;20029;-56
2021/06/21 07:50:55;;;;;;;22.02;9.77;;;51.50;25.50;;;;;;5014746;28;20064;-55
2021/06/21 07:53:20;;;;;;;23.35;11.15;;;52.00;25.20;;;;;;4990941;28;20382;-57
2021/06/21 07:55:46;;;;;;;25.63;10.07;;;52.50;25.10;;;;;;4995492;28;20120;-58
2021/06/21 07:58:12;;;;;;;32.85;10.65;;;53.00;24.70;;;;;;5014179;28;20117;-59
2021/06/21 08:00:39;;;;;;;14.90;9.52;;;53.10;24.50;;;;;;5011964;28;20269;-57
2021/06/21 08:03:09;;;;;;;35.75;11.65;;;53.30;24.20;;;;;;5013175;28;20040;-58
2021/06/21 08:05:36;;;;;;;19.65;10.88;;;53.20;24.30;;;;;;4995024;28;20413;-57
2021/06/21 08:08:01;;;;;;;20.88;11.45;;;52.20;24.50;;;;;;5013508;28;20109;-59
2021/06/21 08:10:27;;;;;;;24.80;10.88;;;51.30;24.90;;;;;;5011008;28;20129;-54
2021/06/21 08:12:53;;;;;;;24.77;9.80;;;51.10;25.10;;;;;;4995621;28;20029;-56
2021/06/21 08:15:37;;;;;;;20.23;9.95;;;51.80;25.10;;;;;;5009752;28;20034;-59
2021/06/21 08:18:06;;;;;;;18.77;9.93;;;52.30;24.70;;;;;;5014621;28;20120;-58
2021/06/21 08:20:33;;;;;;;24.27;10.30;;;52.60;24.50;;;;;;4988740;28;20258;-59
2021/06/21 08:22:59;;;;;;;18.90;10.73;;;53.10;24.40;;;;;;4983277;28;20052;-58
2021/06/21 08:25:25;;;;;;;21.02;10.95;;;53.20;24.10;;;;;;4981561;28;20492;-57
2021/06/21 08:27:50;;;;;;;15.90;10.00;;;53.50;24.10;;;;;;4982142;28;20037;-56
2021/06/21 08:30:16;;;;;;;15.23;10.18;;;53.00;24.00;;;;;;5002611;28;20037;-57
2021/06/21 08:32:43;;;;;;;13.93;10.32;;;51.10;24.60;;;;;;5008417;28;20045;-56
2021/06/21 08:35:10;;;;;;;20.08;11.88;;;49.30;25.60;;;;;;5000644;28;20389;-58
2021/06/21 08:37:36;;;;;;;18.40;11.80;;;49.60;26.00;;;;;;4998301;28;20061;-58
2021/06/21 08:40:05;;;;;;;16.67;11.25;;;50.70;25.40;;;;;;5012914;28;20450;-57
2021/06/21 08:42:31;;;;;;;18.00;11.05;;;51.70;25.10;;;;;;5012780;28;20022;-58
2021/06/21 08:44:59;;;;;;;17.08;11.27;;;52.30;24.60;;;;;;5013335;28;20034;-57
2021/06/21 08:47:27;;;;;;;18.27;11.13;;;51.40;24.70;;;;;;5003897;28;20050;-59
2021/06/21 08:49:54;;;;;;;12.70;10.50;;;51.10;24.90;;;;;;4997882;28;20033;-58
2021/06/21 08:52:20;;;;;;;18.55;9.65;;;51.40;25.00;;;;;;4986045;28;20473;-56
2021/06/21 08:54:47;;;;;;;20.40;10.85;;;50.20;25.20;;;;;;4995382;28;20033;-55
2021/06/21 08:57:13;;;;;;;20.20;11.40;;;48.30;26.10;;;;;;4992114;28;20032;-57
2021/06/21 08:59:41;;;;;;;18.35;10.48;;;47.00;27.10;;;;;;4994630;28;20029;-56
2021/06/21 09:02:07;;;;;;;21.58;10.95;;;46.90;27.20;;;;;;5013634;28;20033;-53
2021/06/21 09:04:39;;;;;;;21.38;10.27;;;46.10;27.80;;;;;;5011675;28;20034;-57
2021/06/21 09:07:23;;;;;;;20.73;11.00;;;45.30;28.20;;;;;;4995318;28;20399;-56
2021/06/21 09:09:50;;;;;;;22.50;11.68;;;43.60;29.40;;;;;;5012226;28;20030;-57
2021/06/21 09:12:28;;;;;;;29.95;11.45;;;42.40;30.20;;;;;;5011985;28;20026;-55
2021/06/21 09:14:58;;;;;;;24.85;11.55;;;41.70;31.20;;;;;;5013148;28;20053;-55
2021/06/21 09:17:26;;;;;;;20.83;12.98;;;40.70;32.30;;;;;;5006157;28;20021;-54
2021/06/21 09:19:58;;;;;;;22.85;12.50;;;39.50;33.90;;;;;;5001771;28;20033;-52
2021/06/21 09:22:42;;;;;;;22.42;11.23;;;41.30;33.10;;;;;;5010700;28;20029;-56
2021/06/21 09:25:24;;;;;;;24.85;11.95;;;41.80;31.90;;;;;;4994249;28;20034;-56
2021/06/21 09:27:53;;;;;;;20.55;12.15;;;41.40;32.10;;;;;;5012463;28;20108;-60
2021/06/21 09:30:20;;;;;;;20.80;11.35;;;41.00;32.30;;;;;;4994459;28;20073;-52
2021/06/21 09:32:49;;;;;;;30.00;13.52;;;40.10;33.10;;;;;;4993718;28;20036;-50
2021/06/21 09:35:32;;;;;;;20.20;11.77;;;39.40;34.20;;;;;;4978401;28;20034;-52
2021/06/21 09:38:02;;;;;;;22.38;12.80;;;39.10;34.50;;;;;;5011979;28;20025;-50
2021/06/21 09:40:36;;;;;;;20.25;12.38;;;39.30;34.70;;;;;;5011458;28;20080;-56
2021/06/21 09:43:22;;;;;;;23.52;11.50;;;39.30;34.80;;;;;;4990020;28;20032;-54
2021/06/21 09:46:11;;;;;;;23.38;12.63;;;39.20;34.50;;;;;;4991273;28;20058;-53
2021/06/21 09:48:47;;;;;;;23.02;11.80;;;39.00;34.70;;;;;;5011055;28;20072;-57
2021/06/21 09:51:28;;;;;;;22.50;11.63;;;38.90;34.90;;;;;;5009401;28;20030;-51
2021/06/21 09:54:11;;;;;;;24.58;12.98;;;38.80;35.20;;;;;;5011580;28;20045;-55
2021/06/21 09:56:51;;;;;;;23.98;12.35;;;38.50;35.70;;;;;;5007461;28;20030;-52
2021/06/21 09:59:33;;;;;;;21.90;12.90;;;38.10;36.50;;;;;;5000733;28;20029;-54
2021/06/21 10:02:14;;;;;;;22.98;12.73;;;37.80;37.10;;;;;;4991645;28;20481;-58
2021/06/21 10:05:00;;;;;;;29.77;12.93;;;37.50;37.30;;;;;;4989839;28;20076;-57
2021/06/21 10:07:32;;;;;;;19.95;12.38;;;37.70;37.40;;;;;;4993065;28;20025;-58
2021/06/21 10:10:01;;;;;;;27.58;12.15;;;37.60;37.40;;;;;;4994598;28;20022;-51
2021/06/21 10:12:27;;;;;;;25.02;12.23;;;37.50;37.50;;;;;;5007493;28;20029;-57
2021/06/21 10:14:53;;;;;;;23.20;12.88;;;37.50;37.60;;;;;;5008253;28;20135;-56
2021/06/21 10:17:20;;;;;;;25.02;12.68;;;37.50;37.50;;;;;;5009602;28;20157;-58
2021/06/21 10:19:50;;;;;;;28.23;14.38;;;37.60;37.50;;;;;;4993059;28;20045;-57
2021/06/21 10:22:20;;;;;;;27.85;13.48;;;37.80;37.30;;;;;;5009467;28;20030;-54
2021/06/21 10:24:52;;;;;;;24.73;13.77;;;38.10;37.40;;;;;;4991435;28;20028;-56
2021/06/21 10:27:20;;;;;;;27.80;13.90;;;38.20;36.90;;;;;;5010139;28;20065;-50
2021/06/21 10:29:47;;;;;;;20.15;11.80;;;38.30;36.80;;;;;;5008118;28;20277;-57
2021/06/21 10:32:14;;;;;;;44.40;21.63;;;37.90;37.40;;;;;;4993056;28;20088;-54
2021/06/21 10:34:41;;;;;;;25.02;11.57;;;38.00;37.20;;;;;;4991504;28;20072;-54
2021/06/21 10:37:15;;;;;;;22.23;12.02;;;37.80;36.60;;;;;;5008735;28;20064;-54
2021/06/21 10:39:49;;;;;;;22.33;11.65;;;38.00;36.40;;;;;;5008527;28;20026;-51
2021/06/21 10:42:37;;;;;;;23.05;12.45;;;37.80;36.30;;;;;;4991773;28;20056;-55
2021/06/21 10:45:06;;;;;;;20.27;12.35;;;37.90;36.90;;;;;;5009958;28;20040;-56
2021/06/21 10:47:38;;;;;;;29.33;13.00;;;38.20;36.40;;;;;;5010156;28;20050;-52
2021/06/21 10:50:16;;;;;;;26.55;15.38;;;38.10;36.60;;;;;;4991572;28;20054;-56
2021/06/21 10:52:51;;;;;;;22.98;13.68;;;38.20;36.70;;;;;;5009053;28;20403;-53
2021/06/21 10:55:37;;;;;;;26.90;15.68;;;38.00;36.90;;;;;;4990901;28;20030;-55
2021/06/21 10:58:21;;;;;;;53.33;41.90;;;37.80;37.40;;;;;;4990533;28;20441;-55
2021/06/21 11:00:51;;;;;;;65.93;48.47;;;37.70;37.70;;;;;;5009705;28;20152;-57
2021/06/21 11:03:27;;;;;;;28.02;15.18;;;37.80;37.80;;;;;;5010352;28;20033;-54
2021/06/21 11:06:07;;;;;;;24.48;13.05;;;37.80;37.50;;;;;;4991235;28;20173;-52
2021/06/21 11:08:47;;;;;;;27.67;13.80;;;38.10;37.30;;;;;;5008667;28;20045;-51
2021/06/21 11:11:41;;;;;;;27.30;14.70;;;38.10;37.50;;;;;;5009280;28;20018;-60
2021/06/21 11:14:13;;;;;;;24.30;12.82;;;38.10;36.90;;;;;;4991774;28;20030;-51
2021/06/21 11:16:40;;;;;;;25.02;17.90;;;38.10;37.20;;;;;;5009481;28;20026;-55
2021/06/21 11:19:21;;;;;;;24.40;13.05;;;38.10;37.70;;;;;;5011199;28;20084;-51
2021/06/21 11:21:53;;;;;;;29.27;16.25;;;37.90;37.50;;;;;;4990921;28;20098;-55
2021/06/21 11:24:42;;;;;;;27.55;13.85;;;37.60;38.00;;;;;;5008970;28;20021;-55
2021/06/21 11:27:09;;;;;;;28.92;14.10;;;37.30;38.30;;;;;;4991476;28;20057;-56
2021/06/21 11:29:43;;;;;;;32.63;16.48;;;37.10;38.80;;;;;;5008457;28;20026;-48
2021/06/21 11:32:10;;;;;;;39.08;15.13;;;37.00;39.30;;;;;;5010758;28;20030;-52
2021/06/21 11:34:57;;;;;;;46.95;25.58;;;36.80;39.40;;;;;;5006943;28;20484;-52
2021/06/21 11:37:46;;;;;;;58.35;16.33;;;36.50;39.90;;;;;;4992399;28;20104;-52
2021/06/21 11:40:13;;;;;;;100.00;37.95;;;36.30;40.40;;;;;;4991117;28;20029;-54
2021/06/21 11:42:43;;;;;;;81.00;18.45;;;36.30;40.70;;;;;;5011375;28;20053;-68
2021/06/21 11:45:09;;;;;;;49.83;18.50;;;36.30;40.90;;;;;;5012858;28;20197;-68
2021/06/21 11:47:38;;;;;;;27.55;15.10;;;36.30;40.60;;;;;;5014168;28;20053;-66
2021/06/21 11:50:13;;;;;;;30.85;14.77;;;36.20;40.50;;;;;;5012701;28;20109;-70
2021/06/21 11:52:40;;;;;;;38.75;16.08;;;36.20;40.40;;;;;;5012782;28;20022;-68
2021/06/21 11:55:18;;;;;;;54.50;32.20;;;36.30;40.40;;;;;;4995294;28;20057;-69
2021/06/21 11:57:49;;;;;;;54.50;18.58;;;36.20;40.50;;;;;;4978538;28;20084;-70
2021/06/21 12:00:17;;;;;;;32.28;16.25;;;36.10;41.00;;;;;;5014609;28;20029;-71
2021/06/21 12:02:46;;;;;;;37.78;14.43;;;36.00;40.70;;;;;;5011657;28;20073;-62
2021/06/21 12:05:17;;;;;;;45.60;16.88;;;35.90;40.60;;;;;;4993309;28;20026;-69
2021/06/21 12:07:45;;;;;;;24.38;11.88;;;36.00;40.70;;;;;;5012420;28;20024;-68
2021/06/21 12:10:17;;;;;;;20.85;11.55;;;36.00;40.00;;;;;;4996530;28;20026;-68
2021/06/21 12:12:45;;;;;;;16.67;11.20;;;36.10;39.70;;;;;;5012917;28;20030;-73
2021/06/21 12:15:15;;;;;;;19.08;11.10;;;36.30;39.10;;;;;;4996882;28;20084;-71
2021/06/21 12:17:41;;;;;;;28.13;14.80;;;36.40;38.70;;;;;;4996292;28;20057;-70
2021/06/21 12:20:19;;;;;;;43.10;16.85;;;36.50;38.80;;;;;;5010482;28;20037;-69
2021/06/21 12:23:07;;;;;;;45.40;17.52;;;36.50;39.60;;;;;;4994591;28;20033;-68
2021/06/21 12:25:36;;;;;;;99.72;22.33;;;36.30;40.10;;;;;;4994320;28;20034;-67
2021/06/21 12:28:11;;;;;;;44.58;16.15;;;36.30;41.00;;;;;;4994413;28;20033;-66
2021/06/21 12:30:39;;;;;;;65.07;20.75;;;36.30;40.30;;;;;;4995907;28;20121;-67
2021/06/21 12:33:41;;;;;;;67.78;21.05;;;36.50;40.90;;;;;;4994743;28;20040;-67
2021/06/21 12:36:29;;;;;;;23.63;12.20;;;36.50;40.90;;;;;;4913408;29;20406;-68
2021/06/21 12:39:04;;;;;;;40.05;23.55;;;36.40;40.00;;;;;;5005242;28;20046;-73
2021/06/21 12:41:35;;;;;;;35.67;21.85;;;36.20;40.30;;;;;;5011781;28;20053;-67
2021/06/21 12:44:12;;;;;;;37.40;21.88;;;36.00;40.50;;;;;;5012118;28;20026;-67
2021/06/21 12:46:49;;;;;;;30.25;17.38;;;35.90;40.60;;;;;;5013091;28;20081;-63
2021/06/21 12:49:20;;;;;;;25.77;14.32;;;35.90;41.00;;;;;;5013292;28;20030;-69